sensor_id;sensor_type;location;lat;lon;timestamp;pressure;altitude;pressure_sealevel;temperature;humidity
56142;BME280;42018;48.588;10.836;2022-11-20T00:00:39;96269.22;;;6.00;83.99
56142;BME280;42018;48.588;10.836;2022-11-20T00:03:25;96271.16;;;5.88;83.99
56142;BME280;42018;48.588;10.836;2022-11-20T00:06:12;96276.16;;;5.89;84.01
56142;BME280;42018;48.588;10.836;2022-11-20T00:08:59;96272.50;;;5.90;84.45
56142;BME280;42018;48.588;10.836;2022-11-20T00:11:52;96275.53;;;5.99;83.75
56142;BME280;42018;48.588;10.836;2022-11-20T00:14:38;96271.88;;;5.83;85.06
56142;BME280;42018;48.588;10.836;2022-11-20T00:17:24;96275.88;;;5.64;85.62
56142;BME280;42018;48.588;10.836;2022-11-20T00:20:10;96267.63;;;5.77;84.95
56142;BME280;42018;48.588;10.836;2022-11-20T00:22:55;96277.47;;;5.65;85.79
56142;BME280;42018;48.588;10.836;2022-11-20T00:25:40;96270.19;;;5.72;85.93
56142;BME280;42018;48.588;10.836;2022-11-20T00:28:26;96276.34;;;5.83;84.90
56142;BME280;42018;48.588;10.836;2022-11-20T00:31:14;96280.03;;;5.82;85.27
56142;BME280;42018;48.588;10.836;2022-11-20T00:34:00;96282.22;;;5.90;84.40
56142;BME280;42018;48.588;10.836;2022-11-20T00:36:45;96280.97;;;5.92;84.50
56142;BME280;42018;48.588;10.836;2022-11-20T00:39:31;96281.78;;;5.76;85.03
56142;BME280;42018;48.588;10.836;2022-11-20T00:42:16;96284.38;;;5.93;84.29
56142;BME280;42018;48.588;10.836;2022-11-20T00:45:01;96290.81;;;6.02;83.94
56142;BME280;42018;48.588;10.836;2022-11-20T00:47:47;96293.44;;;6.02;83.87
56142;BME280;42018;48.588;10.836;2022-11-20T00:50:32;96293.19;;;6.04;83.46
56142;BME280;42018;48.588;10.836;2022-11-20T00:53:17;96298.69;;;6.02;83.83
56142;BME280;42018;48.588;10.836;2022-11-20T00:56:09;96298.78;;;5.68;84.56
56142;BME280;42018;48.588;10.836;2022-11-20T00:58:55;96306.69;;;5.68;84.59
56142;BME280;42018;48.588;10.836;2022-11-20T01:01:40;96300.44;;;5.74;85.26
56142;BME280;42018;48.588;10.836;2022-11-20T01:04:25;96307.97;;;5.88;84.80
56142;BME280;42018;48.588;10.836;2022-11-20T01:07:11;96304.84;;;5.91;84.35
56142;BME280;42018;48.588;10.836;2022-11-20T01:09:56;96301.94;;;5.87;84.63
56142;BME280;42018;48.588;10.836;2022-11-20T01:12:41;96300.63;;;5.90;83.68
56142;BME280;42018;48.588;10.836;2022-11-20T01:15:27;96305.75;;;5.80;84.05
56142;BME280;42018;48.588;10.836;2022-11-20T01:18:12;96312.97;;;5.89;83.50
56142;BME280;42018;48.588;10.836;2022-11-20T01:21:03;96311.06;;;6.02;82.95
56142;BME280;42018;48.588;10.836;2022-11-20T01:23:49;96310.13;;;5.91;83.86
56142;BME280;42018;48.588;10.836;2022-11-20T01:26:37;96312.53;;;5.92;83.41
56142;BME280;42018;48.588;10.836;2022-11-20T01:29:24;96322.44;;;5.68;84.00
56142;BME280;42018;48.588;10.836;2022-11-20T01:32:10;96324.72;;;5.60;84.71
56142;BME280;42018;48.588;10.836;2022-11-20T01:34:55;96316.75;;;5.55;85.03
56142;BME280;42018;48.588;10.836;2022-11-20T01:37:41;96319.69;;;5.58;84.68
56142;BME280;42018;48.588;10.836;2022-11-20T01:40:26;96318.13;;;5.40;84.95
56142;BME280;42018;48.588;10.836;2022-11-20T01:43:21;96314.94;;;5.16;85.40
56142;BME280;42018;48.588;10.836;2022-11-20T01:46:17;96322.09;;;5.21;85.74
56142;BME280;42018;48.588;10.836;2022-11-20T01:52:29;96313.72;;;5.41;84.99
56142;BME280;42018;48.588;10.836;2022-11-20T01:55:25;96317.81;;;5.37;84.25
56142;BME280;42018;48.588;10.836;2022-11-20T01:58:11;96327.97;;;5.28;84.64
56142;BME280;42018;48.588;10.836;2022-11-20T02:00:57;96326.13;;;5.28;84.30
56142;BME280;42018;48.588;10.836;2022-11-20T02:03:43;96322.22;;;5.31;84.68
56142;BME280;42018;48.588;10.836;2022-11-20T02:06:33;96323.75;;;5.27;85.24
56142;BME280;42018;48.588;10.836;2022-11-20T02:09:20;96326.28;;;5.22;84.90
56142;BME280;42018;48.588;10.836;2022-11-20T02:12:05;96328.91;;;5.22;84.58
56142;BME280;42018;48.588;10.836;2022-11-20T02:15:11;96317.59;;;5.38;83.91
56142;BME280;42018;48.588;10.836;2022-11-20T02:17:56;96321.66;;;5.29;84.20
56142;BME280;42018;48.588;10.836;2022-11-20T02:20:44;96313.81;;;5.12;83.77
56142;BME280;42018;48.588;10.836;2022-11-20T02:24:14;96313.47;;;5.25;84.26
56142;BME280;42018;48.588;10.836;2022-11-20T02:32:32;96329.09;;;5.15;84.00
56142;BME280;42018;48.588;10.836;2022-11-20T02:38:03;96324.31;;;5.12;84.49
56142;BME280;42018;48.588;10.836;2022-11-20T02:40:48;96332.59;;;5.04;84.45
56142;BME280;42018;48.588;10.836;2022-11-20T02:43:34;96323.38;;;5.01;84.34
56142;BME280;42018;48.588;10.836;2022-11-20T02:46:19;96328.47;;;5.08;84.19
56142;BME280;42018;48.588;10.836;2022-11-20T02:49:05;96324.56;;;4.94;84.15
56142;BME280;42018;48.588;10.836;2022-11-20T02:51:50;96325.91;;;4.96;84.15
56142;BME280;42018;48.588;10.836;2022-11-20T02:54:36;96323.63;;;4.83;84.49
56142;BME280;42018;48.588;10.836;2022-11-20T02:57:21;96323.03;;;4.98;84.30
56142;BME280;42018;48.588;10.836;2022-11-20T03:00:07;96327.53;;;4.80;84.46
56142;BME280;42018;48.588;10.836;2022-11-20T03:02:53;96316.84;;;5.04;83.32
56142;BME280;42018;48.588;10.836;2022-11-20T03:05:38;96319.00;;;4.90;83.63
56142;BME280;42018;48.588;10.836;2022-11-20T03:08:23;96325.13;;;4.96;83.39
56142;BME280;42018;48.588;10.836;2022-11-20T03:11:10;96319.66;;;4.80;83.76
56142;BME280;42018;48.588;10.836;2022-11-20T03:13:55;96316.28;;;4.68;84.73
56142;BME280;42018;48.588;10.836;2022-11-20T03:16:40;96319.25;;;4.72;84.00
56142;BME280;42018;48.588;10.836;2022-11-20T03:19:26;96321.06;;;4.54;84.17
56142;BME280;42018;48.588;10.836;2022-11-20T03:22:11;96321.84;;;4.55;84.24
56142;BME280;42018;48.588;10.836;2022-11-20T03:24:56;96316.69;;;4.60;83.70
56142;BME280;42018;48.588;10.836;2022-11-20T03:27:42;96314.94;;;4.49;83.71
56142;BME280;42018;48.588;10.836;2022-11-20T03:30:27;96318.69;;;4.70;83.52
56142;BME280;42018;48.588;10.836;2022-11-20T03:33:12;96318.59;;;4.65;83.48
56142;BME280;42018;48.588;10.836;2022-11-20T03:36:07;96319.72;;;4.52;83.74
56142;BME280;42018;48.588;10.836;2022-11-20T03:38:53;96319.88;;;4.45;83.80
56142;BME280;42018;48.588;10.836;2022-11-20T03:41:40;96320.34;;;4.76;83.15
56142;BME280;42018;48.588;10.836;2022-11-20T03:44:26;96315.88;;;4.76;82.89
56142;BME280;42018;48.588;10.836;2022-11-20T03:47:11;96322.81;;;4.83;81.93
56142;BME280;42018;48.588;10.836;2022-11-20T03:49:57;96316.53;;;4.84;82.04
56142;BME280;42018;48.588;10.836;2022-11-20T03:52:42;96322.75;;;4.77;82.12
56142;BME280;42018;48.588;10.836;2022-11-20T03:55:27;96316.53;;;4.84;81.49
56142;BME280;42018;48.588;10.836;2022-11-20T03:58:13;96319.72;;;4.86;81.58
56142;BME280;42018;48.588;10.836;2022-11-20T04:01:04;96321.78;;;5.00;81.00
56142;BME280;42018;48.588;10.836;2022-11-20T04:03:51;96326.41;;;5.10;80.63
56142;BME280;42018;48.588;10.836;2022-11-20T04:06:37;96328.38;;;4.86;81.22
56142;BME280;42018;48.588;10.836;2022-11-20T04:09:23;96333.09;;;4.84;81.78
56142;BME280;42018;48.588;10.836;2022-11-20T04:12:08;96326.63;;;4.58;82.01
56142;BME280;42018;48.588;10.836;2022-11-20T04:14:53;96320.09;;;4.61;82.24
56142;BME280;42018;48.588;10.836;2022-11-20T04:17:39;96335.28;;;4.59;81.90
56142;BME280;42018;48.588;10.836;2022-11-20T04:20:24;96329.56;;;4.45;82.47
56142;BME280;42018;48.588;10.836;2022-11-20T04:23:09;96328.72;;;4.27;82.89
56142;BME280;42018;48.588;10.836;2022-11-20T04:26:00;96324.78;;;4.42;82.65
56142;BME280;42018;48.588;10.836;2022-11-20T04:28:46;96326.84;;;4.40;82.81
56142;BME280;42018;48.588;10.836;2022-11-20T04:31:33;96322.38;;;4.23;83.46
56142;BME280;42018;48.588;10.836;2022-11-20T04:34:19;96320.00;;;4.39;83.23
56142;BME280;42018;48.588;10.836;2022-11-20T04:37:05;96325.63;;;4.30;82.81
56142;BME280;42018;48.588;10.836;2022-11-20T04:39:50;96325.53;;;4.25;83.00
56142;BME280;42018;48.588;10.836;2022-11-20T04:42:35;96321.88;;;4.26;82.92
56142;BME280;42018;48.588;10.836;2022-11-20T04:45:22;96315.94;;;4.31;83.05
56142;BME280;42018;48.588;10.836;2022-11-20T04:48:08;96311.56;;;4.20;83.41
56142;BME280;42018;48.588;10.836;2022-11-20T04:50:53;96318.94;;;4.23;82.50
56142;BME280;42018;48.588;10.836;2022-11-20T04:53:40;96320.63;;;4.29;82.28
56142;BME280;42018;48.588;10.836;2022-11-20T04:56:25;96318.38;;;4.21;82.55
56142;BME280;42018;48.588;10.836;2022-11-20T04:59:10;96325.22;;;4.22;82.71
56142;BME280;42018;48.588;10.836;2022-11-20T05:01:56;96318.13;;;4.22;82.43
56142;BME280;42018;48.588;10.836;2022-11-20T05:04:41;96311.72;;;4.30;82.23
56142;BME280;42018;48.588;10.836;2022-11-20T05:07:26;96316.94;;;4.30;81.95
56142;BME280;42018;48.588;10.836;2022-11-20T05:10:12;96318.63;;;4.36;81.83
56142;BME280;42018;48.588;10.836;2022-11-20T05:12:57;96316.91;;;4.59;80.70
56142;BME280;42018;48.588;10.836;2022-11-20T05:15:42;96316.84;;;4.53;80.45
56142;BME280;42018;48.588;10.836;2022-11-20T05:18:28;96313.50;;;4.41;81.00
56142;BME280;42018;48.588;10.836;2022-11-20T05:21:14;96319.75;;;4.23;81.25
56142;BME280;42018;48.588;10.836;2022-11-20T05:23:59;96315.22;;;4.36;81.38
56142;BME280;42018;48.588;10.836;2022-11-20T05:26:45;96316.19;;;4.46;80.99
56142;BME280;42018;48.588;10.836;2022-11-20T05:29:30;96309.84;;;4.42;81.77
56142;BME280;42018;48.588;10.836;2022-11-20T05:32:15;96311.56;;;4.37;81.18
56142;BME280;42018;48.588;10.836;2022-11-20T05:35:00;96316.91;;;4.42;81.10
56142;BME280;42018;48.588;10.836;2022-11-20T05:37:46;96317.59;;;4.37;81.11
56142;BME280;42018;48.588;10.836;2022-11-20T05:40:31;96316.34;;;4.40;80.47
56142;BME280;42018;48.588;10.836;2022-11-20T05:43:16;96318.09;;;4.51;79.73
56142;BME280;42018;48.588;10.836;2022-11-20T05:46:03;96317.56;;;4.49;79.86
56142;BME280;42018;48.588;10.836;2022-11-20T05:48:48;96320.00;;;4.39;80.21
56142;BME280;42018;48.588;10.836;2022-11-20T05:51:33;96316.19;;;4.46;79.81
56142;BME280;42018;48.588;10.836;2022-11-20T05:54:19;96318.25;;;4.27;80.54
56142;BME280;42018;48.588;10.836;2022-11-20T05:57:04;96319.34;;;4.31;79.58
56142;BME280;42018;48.588;10.836;2022-11-20T05:59:49;96322.31;;;4.35;80.59
56142;BME280;42018;48.588;10.836;2022-11-20T06:02:35;96328.72;;;4.27;80.37
56142;BME280;42018;48.588;10.836;2022-11-20T06:05:21;96320.47;;;4.36;79.96
56142;BME280;42018;48.588;10.836;2022-11-20T06:08:06;96316.44;;;4.16;80.09
56142;BME280;42018;48.588;10.836;2022-11-20T06:10:51;96325.31;;;4.27;80.34
56142;BME280;42018;48.588;10.836;2022-11-20T06:13:37;96330.78;;;4.25;80.05
56142;BME280;42018;48.588;10.836;2022-11-20T06:16:23;96330.13;;;4.18;80.07
56142;BME280;42018;48.588;10.836;2022-11-20T06:19:08;96330.56;;;4.27;79.39
56142;BME280;42018;48.588;10.836;2022-11-20T06:21:54;96330.38;;;4.33;78.89
56142;BME280;42018;48.588;10.836;2022-11-20T06:24:39;96333.50;;;4.30;79.28
56142;BME280;42018;48.588;10.836;2022-11-20T06:27:24;96336.22;;;4.36;79.22
56142;BME280;42018;48.588;10.836;2022-11-20T06:30:10;96337.94;;;4.30;78.82
56142;BME280;42018;48.588;10.836;2022-11-20T06:32:56;96339.22;;;4.27;79.01
56142;BME280;42018;48.588;10.836;2022-11-20T06:35:41;96342.63;;;4.28;79.20
56142;BME280;42018;48.588;10.836;2022-11-20T06:38:27;96333.88;;;4.22;79.46
56142;BME280;42018;48.588;10.836;2022-11-20T06:41:18;96338.84;;;4.36;79.17
56142;BME280;42018;48.588;10.836;2022-11-20T06:44:04;96343.22;;;4.47;78.74
56142;BME280;42018;48.588;10.836;2022-11-20T06:46:50;96341.16;;;4.49;78.80
56142;BME280;42018;48.588;10.836;2022-11-20T06:49:35;96352.34;;;4.44;78.80
56142;BME280;42018;48.588;10.836;2022-11-20T06:52:23;96347.28;;;4.38;79.11
56142;BME280;42018;48.588;10.836;2022-11-20T06:55:08;96348.28;;;4.37;79.70
56142;BME280;42018;48.588;10.836;2022-11-20T06:57:54;96348.31;;;4.53;79.16
56142;BME280;42018;48.588;10.836;2022-11-20T07:00:39;96353.16;;;4.45;79.58
56142;BME280;42018;48.588;10.836;2022-11-20T07:03:24;96363.66;;;4.45;79.22
56142;BME280;42018;48.588;10.836;2022-11-20T07:06:10;96360.88;;;4.23;79.41
56142;BME280;42018;48.588;10.836;2022-11-20T07:08:56;96366.09;;;4.35;79.31
56142;BME280;42018;48.588;10.836;2022-11-20T07:11:41;96356.53;;;4.28;79.47
56142;BME280;42018;48.588;10.836;2022-11-20T07:14:26;96361.97;;;4.39;78.72
56142;BME280;42018;48.588;10.836;2022-11-20T07:17:12;96364.66;;;4.44;78.79
56142;BME280;42018;48.588;10.836;2022-11-20T07:19:57;96376.84;;;4.50;78.85
56142;BME280;42018;48.588;10.836;2022-11-20T07:22:43;96370.69;;;4.56;78.67
56142;BME280;42018;48.588;10.836;2022-11-20T07:25:28;96376.19;;;4.71;78.50
56142;BME280;42018;48.588;10.836;2022-11-20T07:28:13;96368.22;;;4.83;78.31
56142;BME280;42018;48.588;10.836;2022-11-20T07:30:59;96365.75;;;4.76;78.19
56142;BME280;42018;48.588;10.836;2022-11-20T07:33:44;96364.41;;;4.91;78.13
56142;BME280;42018;48.588;10.836;2022-11-20T07:36:30;96368.97;;;4.95;77.53
56142;BME280;42018;48.588;10.836;2022-11-20T07:39:15;96361.78;;;4.91;77.95
56142;BME280;42018;48.588;10.836;2022-11-20T07:42:00;96365.28;;;4.63;78.54
56142;BME280;42018;48.588;10.836;2022-11-20T07:44:46;96359.97;;;4.74;78.32
56142;BME280;42018;48.588;10.836;2022-11-20T07:47:36;96367.91;;;4.79;78.45
56142;BME280;42018;48.588;10.836;2022-11-20T07:50:21;96371.03;;;4.93;78.80
56142;BME280;42018;48.588;10.836;2022-11-20T07:53:07;96369.44;;;4.92;78.30
56142;BME280;42018;48.588;10.836;2022-11-20T07:55:52;96370.16;;;4.88;78.44
56142;BME280;42018;48.588;10.836;2022-11-20T07:58:38;96373.25;;;5.01;78.35
56142;BME280;42018;48.588;10.836;2022-11-20T08:01:23;96376.28;;;4.93;78.55
56142;BME280;42018;48.588;10.836;2022-11-20T08:04:09;96370.78;;;4.78;78.58
56142;BME280;42018;48.588;10.836;2022-11-20T08:06:54;96367.38;;;4.77;78.69
56142;BME280;42018;48.588;10.836;2022-11-20T08:09:40;96370.47;;;4.91;78.56
56142;BME280;42018;48.588;10.836;2022-11-20T08:12:25;96368.41;;;4.93;78.96
56142;BME280;42018;48.588;10.836;2022-11-20T08:15:48;96368.56;;;5.03;78.19
56142;BME280;42018;48.588;10.836;2022-11-20T08:18:35;96363.47;;;5.14;77.86
56142;BME280;42018;48.588;10.836;2022-11-20T08:21:20;96370.63;;;5.01;78.18
56142;BME280;42018;48.588;10.836;2022-11-20T08:24:06;96368.88;;;5.07;77.80
56142;BME280;42018;48.588;10.836;2022-11-20T08:26:52;96372.56;;;5.06;77.90
56142;BME280;42018;48.588;10.836;2022-11-20T08:29:37;96369.13;;;5.06;77.18
56142;BME280;42018;48.588;10.836;2022-11-20T08:32:23;96374.13;;;5.07;77.15
56142;BME280;42018;48.588;10.836;2022-11-20T08:35:08;96367.47;;;5.16;77.60
56142;BME280;42018;48.588;10.836;2022-11-20T08:37:53;96376.75;;;5.07;77.59
56142;BME280;42018;48.588;10.836;2022-11-20T08:40:39;96377.22;;;5.04;77.47
56142;BME280;42018;48.588;10.836;2022-11-20T08:43:24;96374.19;;;5.12;76.70
56142;BME280;42018;48.588;10.836;2022-11-20T08:46:09;96377.56;;;5.24;77.38
56142;BME280;42018;48.588;10.836;2022-11-20T08:48:55;96379.06;;;5.20;77.02
56142;BME280;42018;48.588;10.836;2022-11-20T08:51:40;96383.75;;;5.01;77.16
56142;BME280;42018;48.588;10.836;2022-11-20T08:54:26;96385.84;;;4.99;77.24
56142;BME280;42018;48.588;10.836;2022-11-20T08:57:11;96377.06;;;5.11;77.68
56142;BME280;42018;48.588;10.836;2022-11-20T08:59:57;96389.31;;;5.05;76.16
56142;BME280;42018;48.588;10.836;2022-11-20T09:02:42;96386.94;;;5.03;77.11
56142;BME280;42018;48.588;10.836;2022-11-20T09:05:27;96381.22;;;5.23;76.89
56142;BME280;42018;48.588;10.836;2022-11-20T09:08:13;96372.69;;;5.33;76.38
56142;BME280;42018;48.588;10.836;2022-11-20T09:10:59;96374.59;;;5.38;75.58
56142;BME280;42018;48.588;10.836;2022-11-20T09:13:47;96378.41;;;5.47;75.69
56142;BME280;42018;48.588;10.836;2022-11-20T09:16:32;96372.47;;;5.35;75.30
56142;BME280;42018;48.588;10.836;2022-11-20T09:19:18;96374.03;;;5.52;75.93
56142;BME280;42018;48.588;10.836;2022-11-20T09:22:03;96354.91;;;5.57;75.95
56142;BME280;42018;48.588;10.836;2022-11-20T09:24:48;96362.50;;;5.75;75.23
56142;BME280;42018;48.588;10.836;2022-11-20T09:27:34;96356.69;;;5.73;74.41
56142;BME280;42018;48.588;10.836;2022-11-20T09:30:20;96359.38;;;5.79;75.06
56142;BME280;42018;48.588;10.836;2022-11-20T09:33:06;96354.56;;;5.70;75.09
56142;BME280;42018;48.588;10.836;2022-11-20T09:35:51;96347.34;;;5.83;74.75
56142;BME280;42018;48.588;10.836;2022-11-20T09:38:36;96345.75;;;5.82;74.53
56142;BME280;42018;48.588;10.836;2022-11-20T09:44:56;96342.84;;;6.00;74.75
56142;BME280;42018;48.588;10.836;2022-11-20T09:48:03;96345.81;;;5.87;73.94
56142;BME280;42018;48.588;10.836;2022-11-20T09:54:21;96354.28;;;5.72;74.28
56142;BME280;42018;48.588;10.836;2022-11-20T09:57:13;96354.91;;;5.57;75.23
56142;BME280;42018;48.588;10.836;2022-11-20T10:00:03;96350.44;;;5.80;75.96
56142;BME280;42018;48.588;10.836;2022-11-20T10:03:00;96351.69;;;5.94;74.45
56142;BME280;42018;48.588;10.836;2022-11-20T10:05:48;96358.72;;;5.88;73.76
56142;BME280;42018;48.588;10.836;2022-11-20T10:08:43;96354.41;;;5.99;73.99
56142;BME280;42018;48.588;10.836;2022-11-20T10:20:21;96342.81;;;6.22;73.67
56142;BME280;42018;48.588;10.836;2022-11-20T10:29:17;96351.66;;;6.65;72.20
56142;BME280;42018;48.588;10.836;2022-11-20T10:32:14;96358.00;;;6.37;72.51
56142;BME280;42018;48.588;10.836;2022-11-20T10:38:01;96356.00;;;6.49;72.12
56142;BME280;42018;48.588;10.836;2022-11-20T10:40:52;96351.19;;;6.41;72.94
56142;BME280;42018;48.588;10.836;2022-11-20T10:43:38;96346.94;;;6.67;71.65
56142;BME280;42018;48.588;10.836;2022-11-20T10:46:24;96339.38;;;6.76;72.28
56142;BME280;42018;48.588;10.836;2022-11-20T10:49:15;96353.75;;;6.63;72.43
56142;BME280;42018;48.588;10.836;2022-11-20T10:52:13;96347.53;;;6.47;72.78
56142;BME280;42018;48.588;10.836;2022-11-20T11:01:39;96342.72;;;6.39;73.69
56142;BME280;42018;48.588;10.836;2022-11-20T11:07:22;96340.97;;;6.44;73.72
56142;BME280;42018;48.588;10.836;2022-11-20T11:10:22;96334.16;;;6.48;72.75
56142;BME280;42018;48.588;10.836;2022-11-20T11:13:20;96333.56;;;6.41;73.25
56142;BME280;42018;48.588;10.836;2022-11-20T11:16:05;96328.34;;;6.46;73.65
56142;BME280;42018;48.588;10.836;2022-11-20T11:19:15;96315.06;;;6.63;72.35
56142;BME280;42018;48.588;10.836;2022-11-20T11:22:10;96323.00;;;6.68;72.40
56142;BME280;42018;48.588;10.836;2022-11-20T11:25:02;96325.78;;;6.57;72.61
56142;BME280;42018;48.588;10.836;2022-11-20T11:27:48;96330.72;;;6.48;72.67
56142;BME280;42018;48.588;10.836;2022-11-20T11:30:42;96324.59;;;6.69;72.36
56142;BME280;42018;48.588;10.836;2022-11-20T11:33:29;96317.78;;;6.74;71.63
56142;BME280;42018;48.588;10.836;2022-11-20T11:36:22;96317.13;;;6.88;71.45
56142;BME280;42018;48.588;10.836;2022-11-20T11:39:18;96311.53;;;6.80;71.44
56142;BME280;42018;48.588;10.836;2022-11-20T11:42:05;96317.88;;;6.84;71.72
56142;BME280;42018;48.588;10.836;2022-11-20T11:44:51;96314.31;;;6.68;71.89
56142;BME280;42018;48.588;10.836;2022-11-20T11:47:54;96309.50;;;6.60;71.40
56142;BME280;42018;48.588;10.836;2022-11-20T11:50:48;96316.06;;;6.57;72.33
56142;BME280;42018;48.588;10.836;2022-11-20T11:53:39;96318.47;;;6.59;72.02
56142;BME280;42018;48.588;10.836;2022-11-20T11:56:27;96315.22;;;6.52;71.93
56142;BME280;42018;48.588;10.836;2022-11-20T11:59:22;96308.13;;;6.52;72.55
56142;BME280;42018;48.588;10.836;2022-11-20T12:02:22;96308.72;;;6.59;72.11
56142;BME280;42018;48.588;10.836;2022-11-20T12:05:21;96300.34;;;6.67;72.03
56142;BME280;42018;48.588;10.836;2022-11-20T12:08:31;96302.78;;;6.74;71.93
56142;BME280;42018;48.588;10.836;2022-11-20T12:14:22;96290.75;;;6.83;71.95
56142;BME280;42018;48.588;10.836;2022-11-20T12:17:13;96299.25;;;6.58;72.32
56142;BME280;42018;48.588;10.836;2022-11-20T12:19:59;96295.38;;;6.71;72.24
56142;BME280;42018;48.588;10.836;2022-11-20T12:25:41;96307.19;;;6.36;73.50
56142;BME280;42018;48.588;10.836;2022-11-20T12:43:51;96291.19;;;6.43;73.94
56142;BME280;42018;48.588;10.836;2022-11-20T12:59:49;96290.47;;;6.47;75.84
56142;BME280;42018;48.588;10.836;2022-11-20T13:08:53;96277.31;;;6.80;76.09
56142;BME280;42018;48.588;10.836;2022-11-20T13:12:12;96289.16;;;6.50;76.45
56142;BME280;42018;48.588;10.836;2022-11-20T13:17:58;96280.28;;;6.29;77.01
56142;BME280;42018;48.588;10.836;2022-11-20T13:20:45;96285.03;;;6.32;77.41
56142;BME280;42018;48.588;10.836;2022-11-20T13:23:31;96287.97;;;6.36;77.34
56142;BME280;42018;48.588;10.836;2022-11-20T13:26:19;96279.66;;;6.44;77.42
56142;BME280;42018;48.588;10.836;2022-11-20T13:29:11;96284.38;;;6.47;76.43
56142;BME280;42018;48.588;10.836;2022-11-20T13:32:14;96270.03;;;6.33;75.71
56142;BME280;42018;48.588;10.836;2022-11-20T13:35:03;96271.41;;;6.67;74.90
56142;BME280;42018;48.588;10.836;2022-11-20T13:37:59;96272.66;;;6.60;74.40
56142;BME280;42018;48.588;10.836;2022-11-20T13:40:58;96272.16;;;6.63;74.96
56142;BME280;42018;48.588;10.836;2022-11-20T13:43:47;96268.25;;;6.65;75.03
56142;BME280;42018;48.588;10.836;2022-11-20T13:55:38;96256.63;;;6.99;74.76
56142;BME280;42018;48.588;10.836;2022-11-20T13:58:52;96256.53;;;6.83;75.14
56142;BME280;42018;48.588;10.836;2022-11-20T14:01:33;96265.31;;;7.04;74.84
56142;BME280;42018;48.588;10.836;2022-11-20T14:04:30;96256.09;;;6.64;76.04
56142;BME280;42018;48.588;10.836;2022-11-20T14:07:20;96261.06;;;6.61;76.12
56142;BME280;42018;48.588;10.836;2022-11-20T14:10:21;96260.00;;;6.57;76.37
56142;BME280;42018;48.588;10.836;2022-11-20T14:13:25;96256.75;;;6.82;75.81
56142;BME280;42018;48.588;10.836;2022-11-20T14:16:10;96262.44;;;6.68;75.65
56142;BME280;42018;48.588;10.836;2022-11-20T14:18:57;96266.28;;;6.88;74.81
56142;BME280;42018;48.588;10.836;2022-11-20T14:21:43;96265.91;;;6.69;74.70
56142;BME280;42018;48.588;10.836;2022-11-20T14:24:28;96266.13;;;6.67;74.72
56142;BME280;42018;48.588;10.836;2022-11-20T14:27:19;96268.81;;;6.72;74.79
56142;BME280;42018;48.588;10.836;2022-11-20T14:30:12;96256.69;;;6.71;75.38
56142;BME280;42018;48.588;10.836;2022-11-20T14:33:02;96262.69;;;6.99;74.48
56142;BME280;42018;48.588;10.836;2022-11-20T14:35:53;96265.25;;;6.89;74.73
56142;BME280;42018;48.588;10.836;2022-11-20T14:38:39;96259.81;;;7.06;74.13
56142;BME280;42018;48.588;10.836;2022-11-20T14:41:26;96260.25;;;6.92;74.28
56142;BME280;42018;48.588;10.836;2022-11-20T14:44:11;96250.41;;;6.72;74.35
56142;BME280;42018;48.588;10.836;2022-11-20T14:46:57;96247.78;;;6.78;73.58
56142;BME280;42018;48.588;10.836;2022-11-20T14:49:44;96251.13;;;6.68;73.56
56142;BME280;42018;48.588;10.836;2022-11-20T14:52:29;96251.47;;;6.77;73.73
56142;BME280;42018;48.588;10.836;2022-11-20T14:55:37;96247.22;;;6.70;73.83
56142;BME280;42018;48.588;10.836;2022-11-20T14:58:26;96252.47;;;6.70;74.37
56142;BME280;42018;48.588;10.836;2022-11-20T15:01:12;96249.75;;;6.60;74.73
56142;BME280;42018;48.588;10.836;2022-11-20T15:06:56;96249.75;;;6.60;74.79
56142;BME280;42018;48.588;10.836;2022-11-20T15:09:41;96247.81;;;6.45;74.36
56142;BME280;42018;48.588;10.836;2022-11-20T15:12:27;96246.03;;;6.51;75.05
56142;BME280;42018;48.588;10.836;2022-11-20T15:15:18;96246.03;;;6.51;74.81
56142;BME280;42018;48.588;10.836;2022-11-20T15:18:14;96250.69;;;6.44;74.65
56142;BME280;42018;48.588;10.836;2022-11-20T15:21:02;96253.53;;;6.37;74.40
56142;BME280;42018;48.588;10.836;2022-11-20T15:23:48;96249.94;;;6.48;73.35
56142;BME280;42018;48.588;10.836;2022-11-20T15:26:34;96245.38;;;6.39;73.30
56142;BME280;42018;48.588;10.836;2022-11-20T15:29:21;96247.22;;;6.38;73.21
56142;BME280;42018;48.588;10.836;2022-11-20T15:32:08;96236.50;;;6.45;73.53
56142;BME280;42018;48.588;10.836;2022-11-20T15:34:54;96236.22;;;6.46;72.77
56142;BME280;42018;48.588;10.836;2022-11-20T15:37:40;96240.19;;;6.49;72.29
56142;BME280;42018;48.588;10.836;2022-11-20T15:40:25;96231.91;;;6.67;72.17
56142;BME280;42018;48.588;10.836;2022-11-20T15:43:11;96241.16;;;6.70;71.88
56142;BME280;42018;48.588;10.836;2022-11-20T15:45:59;96237.47;;;6.71;72.12
56142;BME280;42018;48.588;10.836;2022-11-20T15:48:51;96246.25;;;6.50;72.83
56142;BME280;42018;48.588;10.836;2022-11-20T15:51:38;96241.69;;;6.72;72.65
56142;BME280;42018;48.588;10.836;2022-11-20T15:54:24;96238.81;;;6.74;72.55
56142;BME280;42018;48.588;10.836;2022-11-20T15:57:10;96241.47;;;6.79;72.32
56142;BME280;42018;48.588;10.836;2022-11-20T15:59:55;96240.72;;;6.83;72.52
56142;BME280;42018;48.588;10.836;2022-11-20T16:02:40;96239.19;;;6.92;72.40
56142;BME280;42018;48.588;10.836;2022-11-20T16:05:29;96237.97;;;7.10;71.41
56142;BME280;42018;48.588;10.836;2022-11-20T16:08:15;96231.34;;;7.03;71.91
56142;BME280;42018;48.588;10.836;2022-11-20T16:11:21;96224.84;;;7.15;71.83
56142;BME280;42018;48.588;10.836;2022-11-20T16:14:30;96213.97;;;7.02;71.73
56142;BME280;42018;48.588;10.836;2022-11-20T16:17:34;96206.88;;;7.07;71.91
56142;BME280;42018;48.588;10.836;2022-11-20T16:20:27;96212.66;;;7.04;71.22
56142;BME280;42018;48.588;10.836;2022-11-20T16:23:12;96218.97;;;6.98;71.31
56142;BME280;42018;48.588;10.836;2022-11-20T16:25:58;96211.72;;;6.78;71.17
56142;BME280;42018;48.588;10.836;2022-11-20T16:28:44;96213.25;;;6.69;72.15
56142;BME280;42018;48.588;10.836;2022-11-20T16:31:29;96211.84;;;6.56;72.24